Time;durP1;ratioP1;P1;durP2;ratioP2;P2;SDS_P1;SDS_P2;PMS_P1;PMS_P2;Temp;Humidity;BMP_temperature;BMP_pressure;BME280_temperature;BME280_humidity;BME280_pressure;Samples;Min_cycle;Max_cycle;Signal;HPM_P1;HPM_P2
2023/08/14 00:01:43;;;;;;;4.78;1.95;;;19.00;1.00;;;;;;5038297;28;20044;-78
2023/08/14 00:04:09;;;;;;;11.43;2.28;;;19.00;1.00;;;;;;5027286;28;20034;-78
2023/08/14 00:06:35;;;;;;;5.45;1.58;;;18.90;1.00;;;;;;5030864;28;20042;-78
2023/08/14 00:09:05;;;;;;;5.65;1.77;;;18.90;1.00;;;;;;5028075;28;20034;-82
2023/08/14 00:11:31;;;;;;;6.30;1.88;;;18.80;1.00;;;;;;5040524;28;20121;-78
2023/08/14 00:13:57;;;;;;;8.20;1.90;;;18.80;1.00;;;;;;5040353;28;20029;-78
2023/08/14 00:16:24;;;;;;;5.22;2.15;;;18.80;1.00;;;;;;5031420;28;20583;-77
2023/08/14 00:18:50;;;;;;;10.52;2.53;;;18.70;1.00;;;;;;5033847;28;20042;-78
2023/08/14 00:21:16;;;;;;;8.10;2.15;;;18.70;1.00;;;;;;5040669;28;20035;-78
2023/08/14 00:23:43;;;;;;;5.78;2.03;;;18.70;1.00;;;;;;5033986;28;20064;-78
2023/08/14 00:26:12;;;;;;;8.02;3.05;;;18.70;1.00;;;;;;5022414;28;20394;-77
2023/08/14 00:28:38;;;;;;;6.13;2.33;;;18.60;1.00;;;;;;5030599;28;20037;-78
2023/08/14 00:31:07;;;;;;;9.60;2.60;;;18.60;1.00;;;;;;5032620;28;20041;-82
2023/08/14 00:33:33;;;;;;;5.85;1.75;;;18.50;1.00;;;;;;5026766;28;20489;-78
2023/08/14 00:35:59;;;;;;;7.50;2.10;;;18.50;1.00;;;;;;5033904;28;20046;-78
2023/08/14 00:38:25;;;;;;;6.78;2.35;;;18.60;1.00;;;;;;5045414;28;20046;-78
2023/08/14 00:40:52;;;;;;;6.15;1.70;;;18.60;1.00;;;;;;5040613;28;20394;-78
2023/08/14 00:43:22;;;;;;;6.35;2.08;;;18.60;1.00;;;;;;5025659;28;20853;-78
2023/08/14 00:45:51;;;;;;;5.35;2.35;;;18.70;1.00;;;;;;5034345;28;20032;-78
2023/08/14 00:48:18;;;;;;;3.65;1.90;;;18.70;1.00;;;;;;5025000;28;20041;-79
2023/08/14 00:50:45;;;;;;;5.63;2.53;;;18.70;1.00;;;;;;5023713;28;20117;-79
2023/08/14 00:53:14;;;;;;;8.10;2.50;;;18.60;1.00;;;;;;5034390;28;20046;-78
2023/08/14 00:55:40;;;;;;;6.15;2.08;;;18.60;1.00;;;;;;5033500;28;20037;-78
2023/08/14 00:58:07;;;;;;;2.95;1.40;;;18.70;1.00;;;;;;5038978;28;20057;-78
2023/08/14 01:00:35;;;;;;;5.15;2.22;;;18.70;1.00;;;;;;5032925;28;20033;-78
2023/08/14 01:03:02;;;;;;;4.68;2.38;;;18.80;1.00;;;;;;5040990;28;20099;-78
2023/08/14 01:05:28;;;;;;;3.22;2.05;;;18.90;1.00;;;;;;5022931;28;20332;-78
2023/08/14 01:07:56;;;;;;;4.35;2.13;;;19.00;1.00;;;;;;5029462;28;20061;-79
2023/08/14 01:10:25;;;;;;;5.18;2.17;;;19.00;1.00;;;;;;5029149;28;20040;-77
2023/08/14 01:13:18;;;;;;;6.03;2.75;;;19.00;1.00;;;;;;5025449;28;20045;-77
2023/08/14 01:15:49;;;;;;;6.55;2.60;;;19.20;1.00;;;;;;5036424;28;20041;-77
2023/08/14 01:18:17;;;;;;;6.15;2.70;;;19.20;1.00;;;;;;5033535;28;20042;-78
2023/08/14 01:21:08;;;;;;;4.13;2.05;;;19.20;1.00;;;;;;5032266;28;20036;-78
2023/08/14 01:24:13;;;;;;;4.82;1.88;;;19.20;1.00;;;;;;5038227;28;20410;-78
2023/08/14 01:26:40;;;;;;;7.60;2.72;;;19.20;1.00;;;;;;5030688;28;20105;-79
2023/08/14 01:29:07;;;;;;;4.65;2.60;;;19.20;1.00;;;;;;5039850;28;20045;-82
2023/08/14 01:31:33;;;;;;;6.65;2.22;;;19.20;1.00;;;;;;5034813;28;20029;-78
2023/08/14 01:33:59;;;;;;;5.38;2.10;;;19.20;1.00;;;;;;5024057;28;20040;-78
2023/08/14 01:37:05;;;;;;;4.65;2.40;;;19.20;1.00;;;;;;5024221;28;20056;-78
2023/08/14 01:39:46;;;;;;;4.82;2.38;;;19.30;1.00;;;;;;5027980;28;20035;-80
2023/08/14 01:42:35;;;;;;;5.22;1.90;;;19.30;1.00;;;;;;5032864;28;20386;-78
2023/08/14 01:45:09;;;;;;;5.13;2.60;;;19.30;1.00;;;;;;5033374;28;20037;-80
2023/08/14 01:47:39;;;;;;;12.73;2.40;;;19.40;1.00;;;;;;5032921;28;20040;-78
2023/08/14 01:50:08;;;;;;;3.63;1.75;;;19.40;1.00;;;;;;5028712;28;20041;-80
2023/08/14 01:52:34;;;;;;;3.85;2.47;;;19.40;1.00;;;;;;5026690;28;20351;-78
2023/08/14 01:55:00;;;;;;;4.10;1.60;;;19.40;1.00;;;;;;5034829;28;20033;-79
2023/08/14 01:57:28;;;;;;;4.65;1.77;;;19.40;1.00;;;;;;5025323;28;20046;-78
2023/08/14 01:59:54;;;;;;;5.53;2.60;;;19.40;1.00;;;;;;5028092;28;20494;-78
2023/08/14 02:02:20;;;;;;;5.78;2.20;;;19.40;1.00;;;;;;5025912;28;20049;-77
2023/08/14 02:04:46;;;;;;;5.15;2.00;;;19.40;1.00;;;;;;5043777;28;20038;-78
2023/08/14 02:07:12;;;;;;;7.10;2.20;;;19.50;1.00;;;;;;5034461;28;20040;-78
2023/08/14 02:09:38;;;;;;;3.75;2.38;;;19.40;1.00;;;;;;5024766;28;20064;-77
2023/08/14 02:12:05;;;;;;;6.32;2.60;;;19.50;1.00;;;;;;5036717;28;20052;-77
2023/08/14 02:14:31;;;;;;;5.90;3.63;;;19.40;1.00;;;;;;5036019;28;20029;-77
2023/08/14 02:17:00;;;;;;;3.13;1.95;;;19.40;1.00;;;;;;5034786;28;20048;-76
2023/08/14 02:19:26;;;;;;;4.35;1.55;;;19.40;1.00;;;;;;5031414;28;20048;-76
2023/08/14 02:21:55;;;;;;;7.05;2.60;;;19.40;1.00;;;;;;5033265;28;20036;-76
2023/08/14 02:24:21;;;;;;;4.68;2.28;;;19.30;1.00;;;;;;5039406;28;20025;-76
2023/08/14 02:26:47;;;;;;;5.10;2.83;;;19.30;1.00;;;;;;5044454;28;20034;-76
2023/08/14 02:29:13;;;;;;;7.25;2.50;;;19.20;1.00;;;;;;5032505;28;20044;-77
2023/08/14 02:31:40;;;;;;;5.15;2.20;;;19.20;1.00;;;;;;5038936;28;20046;-76
2023/08/14 02:34:06;;;;;;;11.70;3.90;;;19.20;1.20;;;;;;5037141;28;20029;-76
2023/08/14 02:36:32;;;;;;;3.35;2.40;;;19.10;6.70;;;;;;5034630;28;20048;-76
2023/08/14 02:38:59;;;;;;;5.47;2.72;;;19.10;8.80;;;;;;5037601;28;20049;-76
2023/08/14 02:41:25;;;;;;;4.30;3.05;;;19.00;20.60;;;;;;5039473;28;20034;-77
2023/08/14 02:43:51;;;;;;;6.18;2.40;;;18.90;30.20;;;;;;5038786;28;20054;-77
2023/08/14 02:46:17;;;;;;;6.57;3.42;;;18.90;54.40;;;;;;5035457;28;20041;-77
2023/08/14 02:48:45;;;;;;;5.82;2.97;;;18.90;62.50;;;;;;5036828;28;20025;-77
2023/08/14 02:51:12;;;;;;;4.72;2.90;;;18.80;71.70;;;;;;5034409;28;20052;-81
2023/08/14 02:53:38;;;;;;;6.70;2.70;;;18.80;93.80;;;;;;5016225;28;20038;-76
2023/08/14 02:56:04;;;;;;;11.70;3.53;;;18.70;99.90;;;;;;5029872;28;20040;-76
2023/08/14 02:58:31;;;;;;;6.55;3.22;;;18.70;99.90;;;;;;5038901;28;20125;-76
2023/08/14 03:00:57;;;;;;;6.18;3.45;;;18.70;99.90;;;;;;5034830;28;20037;-76
2023/08/14 03:03:23;;;;;;;6.78;3.63;;;18.70;99.90;;;;;;5034144;28;20041;-76
2023/08/14 03:05:50;;;;;;;6.90;3.00;;;18.70;99.90;;;;;;5014091;28;20038;-76
2023/08/14 03:08:16;;;;;;;4.50;2.38;;;18.60;99.90;;;;;;5046973;28;20379;-79
2023/08/14 03:10:42;;;;;;;8.23;3.15;;;18.50;99.90;;;;;;5034444;28;20033;-76
2023/08/14 03:13:09;;;;;;;8.23;3.42;;;18.50;99.90;;;;;;5049330;28;20054;-76
2023/08/14 03:15:35;;;;;;;9.10;2.92;;;18.40;99.90;;;;;;5027979;28;20033;-77
2023/08/14 03:18:01;;;;;;;10.07;3.22;;;18.40;99.90;;;;;;5033974;28;20037;-77
2023/08/14 03:20:27;;;;;;;6.43;3.30;;;18.40;99.90;;;;;;5038728;28;20040;-76
2023/08/14 03:22:53;;;;;;;7.70;3.63;;;18.40;99.90;;;;;;5039662;28;20037;-76
2023/08/14 03:25:20;;;;;;;7.47;3.28;;;18.30;99.90;;;;;;5033141;28;20049;-76
2023/08/14 03:27:46;;;;;;;7.65;4.07;;;18.20;99.90;;;;;;5022090;28;20034;-76
2023/08/14 03:30:13;;;;;;;4.75;2.60;;;18.10;99.90;;;;;;5037930;28;20025;-76
2023/08/14 03:32:39;;;;;;;5.10;3.15;;;18.10;99.90;;;;;;5054552;28;20048;-76
2023/08/14 03:35:06;;;;;;;4.45;3.20;;;18.10;99.90;;;;;;5039970;28;20380;-76
2023/08/14 03:37:32;;;;;;;6.78;4.00;;;18.10;99.90;;;;;;5033176;28;20033;-76
2023/08/14 03:40:00;;;;;;;7.15;3.67;;;18.10;99.90;;;;;;5031886;28;20391;-76
2023/08/14 03:42:29;;;;;;;7.50;3.58;;;18.00;99.90;;;;;;5033905;28;20065;-76
2023/08/14 03:44:55;;;;;;;12.30;3.83;;;18.00;99.90;;;;;;5027688;28;20413;-76
2023/08/14 03:47:21;;;;;;;5.45;3.33;;;18.00;99.90;;;;;;5031303;28;20036;-76
2023/08/14 03:49:47;;;;;;;7.13;3.92;;;18.00;99.90;;;;;;5027885;28;20025;-76
2023/08/14 03:52:14;;;;;;;5.47;3.90;;;18.00;99.90;;;;;;5037425;28;20053;-76
2023/08/14 03:54:40;;;;;;;5.85;3.53;;;18.00;99.90;;;;;;5027961;28;20035;-76
2023/08/14 03:57:08;;;;;;;5.57;3.33;;;17.90;99.90;;;;;;5032943;28;20045;-77
2023/08/14 03:59:34;;;;;;;8.43;3.83;;;17.90;99.90;;;;;;5039035;28;20056;-76
2023/08/14 04:02:00;;;;;;;11.73;4.40;;;17.90;99.90;;;;;;5036662;28;20044;-76
2023/08/14 04:04:26;;;;;;;8.30;4.60;;;17.90;99.90;;;;;;5036345;28;20052;-76
2023/08/14 04:06:52;;;;;;;8.32;4.82;;;18.00;99.90;;;;;;5035955;28;20459;-76
2023/08/14 04:09:19;;;;;;;7.85;3.97;;;18.00;99.90;;;;;;5028203;28;20042;-76
2023/08/14 04:11:45;;;;;;;7.43;3.22;;;17.90;99.90;;;;;;5035645;28;20041;-76
2023/08/14 04:14:11;;;;;;;9.82;3.85;;;17.90;99.90;;;;;;5034502;28;20021;-76
2023/08/14 04:16:46;;;;;;;5.93;3.47;;;18.00;99.90;;;;;;5021768;28;20687;-75
2023/08/14 04:19:18;;;;;;;8.73;3.67;;;18.00;99.90;;;;;;5030539;28;20041;-76
2023/08/14 04:21:44;;;;;;;7.93;3.80;;;18.10;99.90;;;;;;5031239;28;20470;-77
2023/08/14 04:24:11;;;;;;;7.53;3.75;;;18.10;99.90;;;;;;5041677;28;20458;-76
2023/08/14 04:26:37;;;;;;;5.60;4.00;;;18.10;99.90;;;;;;5021279;28;20209;-76
2023/08/14 04:29:08;;;;;;;8.73;4.00;;;18.20;99.90;;;;;;5047332;28;20045;-76
2023/08/14 04:31:39;;;;;;;5.72;3.85;;;18.20;99.90;;;;;;5034980;28;20041;-76
2023/08/14 04:34:07;;;;;;;4.70;3.92;;;18.20;99.90;;;;;;5035287;28;20041;-77
2023/08/14 04:36:35;;;;;;;6.10;4.22;;;18.30;99.90;;;;;;5050120;28;20041;-76
2023/08/14 04:39:04;;;;;;;10.35;4.32;;;18.30;99.90;;;;;;5036954;28;20041;-76
2023/08/14 04:41:30;;;;;;;6.53;3.25;;;18.30;99.90;;;;;;5031964;28;20041;-78
2023/08/14 04:43:56;;;;;;;4.60;3.67;;;18.40;99.90;;;;;;5032032;28;20540;-76
2023/08/14 04:46:35;;;;;;;5.15;3.47;;;18.40;99.90;;;;;;5031507;28;20482;-76
2023/08/14 04:49:02;;;;;;;8.50;4.88;;;18.40;99.90;;;;;;5033418;28;20045;-76
2023/08/14 04:51:30;;;;;;;5.72;3.85;;;18.40;99.90;;;;;;5034165;28;20037;-76
2023/08/14 04:53:59;;;;;;;6.65;4.03;;;18.50;99.90;;;;;;5029624;28;20044;-76
2023/08/14 04:56:25;;;;;;;6.95;3.65;;;18.50;99.90;;;;;;5040303;28;20025;-77
2023/08/14 04:58:52;;;;;;;7.28;3.60;;;18.50;99.90;;;;;;5031540;28;20467;-79
2023/08/14 05:01:19;;;;;;;4.25;2.65;;;18.50;99.90;;;;;;5044881;28;20045;-84
2023/08/14 05:03:50;;;;;;;7.63;3.17;;;18.50;99.90;;;;;;5037745;28;20076;-76
2023/08/14 05:06:16;;;;;;;7.68;3.63;;;18.50;99.90;;;;;;5042441;28;20045;-76
2023/08/14 05:08:43;;;;;;;5.82;3.08;;;18.50;99.90;;;;;;5033736;28;20045;-76
2023/08/14 05:11:11;;;;;;;6.13;3.78;;;18.50;99.90;;;;;;5018586;28;20037;-78
2023/08/14 05:13:39;;;;;;;9.88;3.28;;;18.70;99.90;;;;;;5027564;28;20041;-78
2023/08/14 05:16:05;;;;;;;5.50;2.83;;;18.80;99.90;;;;;;5024604;28;20045;-82
2023/08/14 05:18:32;;;;;;;7.45;3.00;;;18.80;99.90;;;;;;5022089;28;20374;-78
2023/08/14 05:20:58;;;;;;;13.48;3.60;;;18.90;99.90;;;;;;5046880;28;20395;-77
2023/08/14 05:23:24;;;;;;;4.25;2.47;;;18.90;99.90;;;;;;5029405;28;20152;-76
2023/08/14 05:25:50;;;;;;;6.47;2.85;;;19.00;99.90;;;;;;5031649;28;20048;-77
2023/08/14 05:28:16;;;;;;;6.18;3.22;;;19.20;96.10;;;;;;5027994;28;20045;-78
2023/08/14 05:30:44;;;;;;;4.95;2.53;;;19.50;40.50;;;;;;5027644;28;20394;-77
2023/08/14 05:33:11;;;;;;;7.32;3.33;;;19.60;27.50;;;;;;5029962;28;20037;-77
2023/08/14 05:35:37;;;;;;;8.35;2.80;;;19.70;4.30;;;;;;5024546;28;20327;-78
2023/08/14 05:38:03;;;;;;;5.60;2.95;;;19.80;1.00;;;;;;5030491;28;20026;-76
2023/08/14 05:40:30;;;;;;;5.25;2.15;;;20.00;1.00;;;;;;5035525;28;20028;-77
2023/08/14 05:43:13;;;;;;;5.28;3.08;;;20.10;1.00;;;;;;5024949;28;20037;-78
2023/08/14 05:45:43;;;;;;;3.75;2.70;;;20.80;1.00;;;;;;5027780;28;20052;-76
2023/08/14 05:48:09;;;;;;;4.55;2.90;;;22.00;1.00;;;;;;5032138;28;20034;-76
2023/08/14 05:50:36;;;;;;;3.65;1.90;;;23.20;99.90;;;;;;5022912;28;20045;-77
2023/08/14 05:53:04;;;;;;;2.85;1.98;;;24.30;11.00;;;;;;5025656;28;20037;-77
2023/08/14 05:55:38;;;;;;;4.25;2.25;;;24.40;1.00;;;;;;5029789;28;20048;-78
2023/08/14 05:58:06;;;;;;;5.28;2.33;;;24.50;1.00;;;;;;5028819;28;20053;-79
2023/08/14 06:00:34;;;;;;;4.90;1.75;;;24.30;1.00;;;;;;5031165;28;20426;-77
2023/08/14 06:03:01;;;;;;;6.05;2.88;;;24.20;1.00;;;;;;5032432;28;20045;-77
2023/08/14 06:05:27;;;;;;;5.18;2.85;;;24.20;1.00;;;;;;5019077;28;20332;-77
2023/08/14 06:07:54;;;;;;;5.68;2.25;;;24.20;1.00;;;;;;5031456;28;20033;-77
2023/08/14 06:10:21;;;;;;;4.50;2.08;;;24.90;99.90;;;;;;5026178;28;20045;-77
2023/08/14 06:12:50;;;;;;;7.22;2.42;;;25.10;99.90;;;;;;5027153;28;20025;-77
2023/08/14 06:15:21;;;;;;;5.80;2.88;;;25.30;99.90;;;;;;5030196;28;20052;-84
2023/08/14 06:17:48;;;;;;;3.13;1.65;;;25.80;99.90;;;;;;5027993;28;20037;-81
2023/08/14 06:20:15;;;;;;;4.10;1.85;;;25.90;99.90;;;;;;5022722;28;20038;-81
2023/08/14 06:22:46;;;;;;;7.47;1.90;;;25.30;99.90;;;;;;5026498;28;20374;-79
2023/08/14 06:25:13;;;;;;;4.90;2.10;;;24.60;99.90;;;;;;5028903;28;20038;-84
2023/08/14 06:27:40;;;;;;;3.78;1.70;;;24.70;99.90;;;;;;5030354;28;20029;-77
2023/08/14 06:30:10;;;;;;;5.75;2.13;;;24.50;99.90;;;;;;5037300;28;20048;-80
2023/08/14 06:32:37;;;;;;;7.25;2.47;;;24.30;1.00;;;;;;5024797;28;20041;-77
2023/08/14 06:35:04;;;;;;;3.83;1.73;;;24.20;1.00;;;;;;5028524;28;20049;-76
2023/08/14 06:37:31;;;;;;;5.93;2.08;;;23.90;1.00;;;;;;5029952;28;21056;-79
2023/08/14 06:39:57;;;;;;;3.08;1.85;;;23.70;1.00;;;;;;5018210;28;20049;-79
2023/08/14 06:42:23;;;;;;;4.15;1.90;;;23.40;1.00;;;;;;5026736;28;20045;-80
2023/08/14 06:44:49;;;;;;;4.50;2.58;;;23.80;1.00;;;;;;5020909;28;20045;-80
2023/08/14 06:47:15;;;;;;;6.40;2.53;;;23.80;1.00;;;;;;5026483;28;20037;-79
2023/08/14 06:49:41;;;;;;;3.17;1.52;;;24.80;1.00;;;;;;5031677;28;20402;-78
2023/08/14 06:52:07;;;;;;;3.72;2.08;;;24.90;99.90;;;;;;5030735;28;20033;-78
2023/08/14 06:54:34;;;;;;;3.80;1.88;;;24.00;1.00;;;;;;5029632;28;20041;-78
2023/08/14 06:57:03;;;;;;;3.78;1.83;;;24.00;1.00;;;;;;5033665;28;20036;-80
2023/08/14 06:59:30;;;;;;;4.75;1.90;;;24.10;1.00;;;;;;5026810;28;20045;-79
2023/08/14 07:01:57;;;;;;;10.07;2.72;;;24.10;1.00;;;;;;5025116;28;20034;-83
2023/08/14 07:04:23;;;;;;;3.47;1.55;;;24.20;1.00;;;;;;5026225;28;20052;-79
2023/08/14 07:06:49;;;;;;;3.25;2.00;;;25.10;99.90;;;;;;5027555;28;20044;-78
2023/08/14 07:09:16;;;;;;;4.38;2.33;;;25.40;99.90;;;;;;5029350;28;20052;-79
2023/08/14 07:11:43;;;;;;;7.20;2.20;;;25.00;99.90;;;;;;5035106;28;20033;-78
2023/08/14 07:14:09;;;;;;;4.45;1.98;;;25.00;99.90;;;;;;5043521;28;20041;-78
2023/08/14 07:16:36;;;;;;;4.47;1.80;;;24.70;99.90;;;;;;5035466;28;20056;-80
2023/08/14 07:19:02;;;;;;;3.40;2.72;;;24.90;99.90;;;;;;5032061;28;20751;-78
2023/08/14 07:21:28;;;;;;;5.32;1.80;;;25.20;99.90;;;;;;5035620;28;20509;-78
2023/08/14 07:23:54;;;;;;;3.92;2.08;;;24.90;99.90;;;;;;5026978;28;20042;-78
2023/08/14 07:26:21;;;;;;;5.68;2.10;;;24.80;99.90;;;;;;5019973;28;20061;-80
2023/08/14 07:28:47;;;;;;;5.90;2.03;;;24.60;99.90;;;;;;5027755;28;20041;-79
2023/08/14 07:31:13;;;;;;;5.40;2.08;;;24.60;1.00;;;;;;5044265;28;20036;-77
2023/08/14 07:33:39;;;;;;;3.80;2.00;;;24.70;99.90;;;;;;5034173;28;20052;-79
2023/08/14 07:36:05;;;;;;;2.53;1.92;;;24.80;99.90;;;;;;5033496;28;20389;-78
2023/08/14 07:38:32;;;;;;;7.82;1.92;;;25.30;99.90;;;;;;5039161;28;20045;-78
2023/08/14 07:40:58;;;;;;;3.78;2.30;;;25.70;99.90;;;;;;5028215;28;20046;-79
2023/08/14 07:43:24;;;;;;;5.53;2.05;;;25.90;99.90;;;;;;5031983;28;20041;-77
2023/08/14 07:45:51;;;;;;;3.53;2.15;;;26.20;99.90;;;;;;5029691;28;20045;-77
2023/08/14 07:48:17;;;;;;;6.25;2.55;;;26.20;99.90;;;;;;5033280;28;20126;-77
2023/08/14 07:50:44;;;;;;;5.88;2.45;;;26.50;99.90;;;;;;5029929;28;20029;-80
2023/08/14 07:53:10;;;;;;;3.60;2.60;;;26.60;99.90;;;;;;5041469;28;20468;-80
2023/08/14 07:55:37;;;;;;;5.40;2.88;;;26.80;99.90;;;;;;5039639;28;20030;-78
2023/08/14 07:58:03;;;;;;;7.35;2.75;;;26.50;99.90;;;;;;5032648;28;20053;-78
2023/08/14 08:00:30;;;;;;;8.50;2.55;;;27.00;99.90;;;;;;5024319;28;20034;-85
2023/08/14 08:02:56;;;;;;;4.95;2.65;;;27.00;99.90;;;;;;5033464;28;20040;-78
2023/08/14 08:05:22;;;;;;;3.67;2.75;;;27.80;99.90;;;;;;5034651;28;20045;-78
2023/08/14 08:07:49;;;;;;;7.85;3.00;;;28.60;24.40;;;;;;5018916;28;20401;-78
2023/08/14 08:10:18;;;;;;;6.10;3.55;;;28.10;30.40;;;;;;5021196;28;20387;-78
2023/08/14 08:12:44;;;;;;;7.38;3.30;;;27.50;72.50;;;;;;5034675;28;20041;-77
2023/08/14 08:15:10;;;;;;;5.60;2.58;;;27.70;63.70;;;;;;5038823;28;20045;-77
2023/08/14 08:17:36;;;;;;;12.82;2.83;;;27.80;27.40;;;;;;5029622;28;20034;-78
2023/08/14 08:20:04;;;;;;;8.23;3.08;;;28.20;56.30;;;;;;5036968;28;20487;-80
2023/08/14 08:22:31;;;;;;;4.10;2.30;;;29.40;1.00;;;;;;5028285;28;20033;-86
2023/08/14 08:24:57;;;;;;;5.78;2.53;;;29.30;1.00;;;;;;5032281;28;20047;-79
2023/08/14 08:27:23;;;;;;;4.07;2.67;;;29.10;1.00;;;;;;5028570;28;20037;-80
2023/08/14 08:29:49;;;;;;;3.67;2.20;;;29.70;1.00;;;;;;5032881;28;20470;-81
2023/08/14 08:32:15;;;;;;;4.40;2.42;;;30.00;1.00;;;;;;5028880;28;20048;-81
2023/08/14 08:34:41;;;;;;;3.08;2.13;;;29.40;1.00;;;;;;5026705;28;20037;-81
2023/08/14 08:37:07;;;;;;;3.17;2.20;;;28.70;1.00;;;;;;5040193;28;20033;-80
2023/08/14 08:39:34;;;;;;;3.65;2.20;;;28.10;13.70;;;;;;5041719;28;20036;-81
2023/08/14 08:42:02;;;;;;;3.78;1.88;;;27.70;14.80;;;;;;5034592;28;20474;-80
2023/08/14 08:44:33;;;;;;;5.72;2.13;;;27.50;31.30;;;;;;5028314;28;20034;-80
2023/08/14 08:47:08;;;;;;;5.90;2.10;;;27.00;82.30;;;;;;5035026;28;20029;-80
2023/08/14 08:49:40;;;;;;;3.63;2.50;;;27.10;99.90;;;;;;5027859;28;20056;-80
2023/08/14 08:52:07;;;;;;;4.07;2.05;;;27.20;93.90;;;;;;5025296;28;20046;-81
2023/08/14 08:54:34;;;;;;;3.85;1.95;;;27.20;79.00;;;;;;5022433;28;20036;-81
2023/08/14 08:57:00;;;;;;;3.40;1.70;;;27.00;90.90;;;;;;5033871;28;20378;-80
2023/08/14 08:59:26;;;;;;;2.53;2.13;;;26.80;99.90;;;;;;5036867;28;20431;-80
2023/08/14 09:01:53;;;;;;;4.22;2.22;;;27.10;99.90;;;;;;5031777;28;20424;-80
2023/08/14 09:04:19;;;;;;;5.90;1.77;;;27.40;55.60;;;;;;5041479;28;20048;-79
2023/08/14 09:06:45;;;;;;;3.80;1.88;;;27.40;26.20;;;;;;5027550;28;20037;-80
2023/08/14 09:09:13;;;;;;;3.38;2.63;;;27.30;60.10;;;;;;5023535;28;20034;-80
2023/08/14 09:11:39;;;;;;;3.95;2.00;;;27.20;66.00;;;;;;5026738;28;20040;-81
2023/08/14 09:14:06;;;;;;;5.05;2.15;;;27.90;82.10;;;;;;5031801;28;20060;-82
2023/08/14 09:16:32;;;;;;;6.22;2.58;;;29.30;1.00;;;;;;5026881;28;20041;-80
2023/08/14 09:19:02;;;;;;;6.45;2.15;;;29.50;1.00;;;;;;5025209;28;20044;-76
2023/08/14 09:21:29;;;;;;;4.50;2.28;;;28.40;1.00;;;;;;5052967;28;20029;-79
2023/08/14 09:23:59;;;;;;;7.53;3.35;;;28.30;12.70;;;;;;5061427;28;20045;-79
2023/08/14 09:26:25;;;;;;;3.15;1.85;;;28.30;4.70;;;;;;5022813;28;20033;-80
2023/08/14 09:28:53;;;;;;;7.07;2.72;;;28.80;1.00;;;;;;5034296;28;20424;-79
2023/08/14 09:31:19;;;;;;;3.40;1.88;;;29.00;1.00;;;;;;5030050;28;20033;-79
2023/08/14 09:33:46;;;;;;;3.35;1.77;;;28.00;1.00;;;;;;5025814;28;20034;-80
2023/08/14 09:36:15;;;;;;;2.50;1.80;;;27.80;17.90;;;;;;5028739;28;20041;-80
2023/08/14 09:38:41;;;;;;;4.28;1.75;;;28.40;8.40;;;;;;5027740;28;20037;-78
2023/08/14 09:41:08;;;;;;;5.30;1.90;;;28.80;1.00;;;;;;5031708;28;20473;-79
2023/08/14 09:43:35;;;;;;;3.40;1.63;;;29.30;1.00;;;;;;5033008;28;20033;-81
2023/08/14 09:46:03;;;;;;;3.53;1.58;;;29.40;1.00;;;;;;5038008;28;20044;-82
2023/08/14 09:48:40;;;;;;;3.10;1.33;;;29.00;1.00;;;;;;5036406;28;20040;-80
2023/08/14 09:51:13;;;;;;;3.13;2.10;;;29.30;1.00;;;;;;5026135;28;20034;-81
2023/08/14 09:53:50;;;;;;;3.13;1.92;;;29.70;1.00;;;;;;5025137;28;20029;-81
2023/08/14 09:56:18;;;;;;;3.05;1.55;;;30.00;1.00;;;;;;5026821;28;20482;-81
2023/08/14 09:58:46;;;;;;;2.22;1.30;;;30.30;1.00;;;;;;5024151;28;20387;-81
2023/08/14 10:01:13;;;;;;;3.40;1.75;;;29.80;1.00;;;;;;5022268;28;20477;-81
2023/08/14 10:03:41;;;;;;;2.00;1.58;;;29.80;1.00;;;;;;5042356;28;20045;-80
2023/08/14 10:06:10;;;;;;;5.03;1.80;;;29.70;1.00;;;;;;5039313;28;20041;-80
2023/08/14 10:08:38;;;;;;;2.72;1.63;;;29.00;1.00;;;;;;5028555;28;20285;-77
2023/08/14 10:11:07;;;;;;;2.00;1.38;;;29.10;1.00;;;;;;5031960;28;20029;-80
2023/08/14 10:13:43;;;;;;;2.63;1.33;;;29.10;1.00;;;;;;5032033;28;20467;-80
2023/08/14 10:16:16;;;;;;;2.22;1.17;;;29.40;1.00;;;;;;5026455;28;20474;-81
2023/08/14 10:18:44;;;;;;;3.95;1.50;;;29.70;1.00;;;;;;5025377;28;20028;-80
2023/08/14 10:21:14;;;;;;;3.00;1.83;;;29.70;1.00;;;;;;5022631;28;20387;-81
2023/08/14 10:23:42;;;;;;;6.10;1.77;;;29.40;1.00;;;;;;5025579;28;20026;-80
2023/08/14 10:26:08;;;;;;;2.13;1.40;;;28.70;1.00;;;;;;5030738;28;20045;-78
2023/08/14 10:28:35;;;;;;;4.15;1.52;;;28.70;1.00;;;;;;5029755;28;20044;-80
2023/08/14 10:31:02;;;;;;;2.75;1.73;;;29.00;1.00;;;;;;5037884;28;20029;-80
2023/08/14 10:33:30;;;;;;;3.33;2.15;;;29.20;1.00;;;;;;5031795;28;20478;-80
2023/08/14 10:35:58;;;;;;;3.08;1.67;;;29.50;1.00;;;;;;5026789;28;20049;-80
2023/08/14 10:38:46;;;;;;;5.95;2.70;;;29.60;1.00;;;;;;5040730;28;20029;-81
2023/08/14 10:41:17;;;;;;;4.72;1.48;;;29.60;1.00;;;;;;5029550;28;20048;-80
2023/08/14 10:43:47;;;;;;;5.18;2.05;;;30.20;1.00;;;;;;5024940;28;20395;-80
2023/08/14 10:46:14;;;;;;;4.82;1.40;;;30.80;1.00;;;;;;5035841;28;20045;-79
2023/08/14 10:48:42;;;;;;;2.47;1.42;;;30.80;1.00;;;;;;5036465;28;20029;-83
2023/08/14 10:51:09;;;;;;;4.65;1.70;;;30.70;1.00;;;;;;5031971;28;20037;-80
2023/08/14 10:53:36;;;;;;;6.88;1.92;;;30.70;1.00;;;;;;5036482;28;20025;-80
2023/08/14 10:56:06;;;;;;;1.90;1.25;;;30.90;1.00;;;;;;5037988;28;20033;-80
2023/08/14 10:58:32;;;;;;;1.65;1.08;;;30.90;1.00;;;;;;5033025;28;20395;-80
2023/08/14 11:01:00;;;;;;;4.07;1.90;;;31.10;1.00;;;;;;5022196;28;20049;-78
2023/08/14 11:03:27;;;;;;;2.55;1.75;;;31.20;1.00;;;;;;5030463;28;20045;-77
2023/08/14 11:05:54;;;;;;;7.72;1.63;;;31.10;1.00;;;;;;5027686;28;20033;-77
2023/08/14 11:08:21;;;;;;;4.20;1.70;;;30.50;1.00;;;;;;5033462;28;20042;-78
2023/08/14 11:10:49;;;;;;;2.22;1.75;;;29.70;1.00;;;;;;5033235;28;20042;-78
2023/08/14 11:13:15;;;;;;;5.65;2.63;;;29.20;1.00;;;;;;5034418;28;20041;-77
2023/08/14 11:15:43;;;;;;;2.47;1.60;;;29.70;1.00;;;;;;5028030;28;20033;-82
2023/08/14 11:18:10;;;;;;;5.43;1.67;;;30.00;1.00;;;;;;5023181;28;20034;-77
2023/08/14 11:20:45;;;;;;;3.47;1.23;;;30.10;1.00;;;;;;5034771;28;20029;-78
2023/08/14 11:23:11;;;;;;;3.47;1.80;;;29.80;1.00;;;;;;5026775;28;20390;-77
2023/08/14 11:25:38;;;;;;;5.57;1.83;;;29.90;1.00;;;;;;5028333;28;20037;-77
2023/08/14 11:28:04;;;;;;;3.85;2.33;;;29.90;1.00;;;;;;5019174;28;20037;-77
2023/08/14 11:30:33;;;;;;;5.60;2.03;;;29.60;1.00;;;;;;5039408;28;20037;-78
2023/08/14 11:33:01;;;;;;;3.15;1.85;;;29.30;1.00;;;;;;5039680;28;20147;-78
2023/08/14 11:35:30;;;;;;;4.03;1.52;;;29.80;1.00;;;;;;5032351;28;20041;-77
2023/08/14 11:37:56;;;;;;;1.77;1.30;;;30.00;1.00;;;;;;5031365;28;20493;-78
2023/08/14 11:40:24;;;;;;;3.15;1.60;;;30.00;1.00;;;;;;5025838;28;20038;-77
2023/08/14 11:42:51;;;;;;;2.55;1.58;;;30.00;1.00;;;;;;5028267;28;20394;-78
2023/08/14 11:45:17;;;;;;;4.05;1.48;;;30.20;1.00;;;;;;5026785;28;20033;-79
2023/08/14 11:47:47;;;;;;;2.20;1.38;;;30.50;1.00;;;;;;5024393;28;20044;-82
2023/08/14 11:50:14;;;;;;;2.28;1.13;;;30.70;1.00;;;;;;5020599;28;20572;-78
2023/08/14 11:52:44;;;;;;;6.85;1.48;;;30.70;99.90;;;;;;5032489;28;20040;-78
2023/08/14 11:55:12;;;;;;;3.33;2.03;;;30.90;99.90;;;;;;5045508;28;20025;-78
2023/08/14 11:57:43;;;;;;;4.40;1.73;;;31.00;99.90;;;;;;5035790;28;20046;-79
2023/08/14 12:00:10;;;;;;;5.22;1.67;;;30.90;99.90;;;;;;5034537;28;20057;-78
2023/08/14 12:02:40;;;;;;;2.85;1.27;;;30.70;99.90;;;;;;5030855;28;20033;-78
2023/08/14 12:05:08;;;;;;;4.05;1.60;;;30.70;99.90;;;;;;5034921;28;20026;-78
2023/08/14 12:07:34;;;;;;;2.90;1.50;;;31.00;99.90;;;;;;5027723;28;20460;-79
2023/08/14 12:10:10;;;;;;;4.93;1.58;;;30.90;99.90;;;;;;5020232;28;20466;-77
2023/08/14 12:12:37;;;;;;;2.17;1.33;;;30.50;99.90;;;;;;5029734;28;20386;-77
2023/08/14 12:15:05;;;;;;;3.83;2.08;;;30.50;99.90;;;;;;5034155;28;20037;-78
2023/08/14 12:17:31;;;;;;;7.88;3.10;;;30.50;99.90;;;;;;5029307;28;20454;-75
2023/08/14 12:19:57;;;;;;;3.78;1.92;;;30.70;99.90;;;;;;5038925;28;20028;-77
2023/08/14 12:22:25;;;;;;;3.70;1.35;;;30.30;99.90;;;;;;5039101;28;20037;-79
2023/08/14 12:24:52;;;;;;;2.83;1.70;;;30.20;99.90;;;;;;5027548;28;20379;-78
2023/08/14 12:27:21;;;;;;;3.30;1.30;;;30.20;99.90;;;;;;5026292;28;20048;-75
2023/08/14 12:29:48;;;;;;;5.70;2.63;;;30.50;99.90;;;;;;5035399;28;20033;-78
2023/08/14 12:32:15;;;;;;;7.45;3.58;;;30.20;99.90;;;;;;5025788;28;20044;-80
2023/08/14 12:34:41;;;;;;;3.53;1.98;;;30.60;99.90;;;;;;5027524;28;20041;-80
2023/08/14 12:37:12;;;;;;;4.20;1.63;;;30.80;99.90;;;;;;5033948;28;20025;-78
2023/08/14 12:39:38;;;;;;;2.53;1.70;;;30.30;99.90;;;;;;5036328;28;20033;-78
2023/08/14 12:42:05;;;;;;;4.20;1.90;;;30.00;99.90;;;;;;5032831;28;20040;-79
2023/08/14 12:44:32;;;;;;;4.57;1.85;;;29.70;99.90;;;;;;5014688;28;20046;-79
2023/08/14 12:46:58;;;;;;;6.18;1.88;;;29.60;1.00;;;;;;5031452;28;20026;-79
2023/08/14 12:49:25;;;;;;;3.40;1.75;;;29.40;1.00;;;;;;5027890;28;20482;-78
2023/08/14 12:51:54;;;;;;;4.18;1.90;;;29.50;1.00;;;;;;5023158;28;20375;-80
2023/08/14 12:54:21;;;;;;;;;;;29.40;1.00;;;;;;5023739;28;20029;-77
2023/08/14 12:56:47;;;;;;;5.28;2.13;;;29.30;1.00;;;;;;5030445;28;20011;-85